Brejo dos Santos, Brazil
Current Conditions -  °F | °C
As of 1:00 PM on Saturday 22 Nov 2014 (Local Time) from SBMS Reporting Station
Scattered Clouds Scattered Clouds  
Wind Chill: 93°   Ceiling: Unl
Heat Index: 97°   Visibility: 6mi
Dew Point: 68°   Wind: 10mph
Humidity: 44%   Direction: 60°ENE
Pressure: 29.83"   Gusts: NA
Location:  6.38°S, 37.82°W
Report Text: SBMS 221600Z 06009KT 9999 SCT030 34/20 Q1010
Loading
Personal Weather Stations






























Interactive Weather Map New forecast layout! Learn more

10-Day Weather Forecast

Advertisements
Track Severe Weather on mobile